MNL weather

Ninoy Aquino International Airport
Manila, Philippines

Public forecast

Using degrees Celsius for public forecast. Weather courtesy of forecast.io.

METAR (pilot weather report)

Retrieved 2017/08/18 02:00 UTC (7 minutes ago):

RPLL 180200Z 27005KT 220V310 9999 SCT023 BKN300 32/25 Q1010 NOSIG RMK A2983

TAF (pilot weather forecast)

Forecast is more than 12 hours old.

Retrieved 2017/08/17 00:00 UTC (1 day ago):

TAF RPLL 172300Z 1800/1906 11006KT 9999 FEW025 SCT300 TX35/1806Z TN27/1821Z TEMPO 1800/1806 VRB03KT FEW025 BKN300 TEMPO 1806/1812 10012KT FEW023CB FEW025 SCT100 TEMPO 1812/1818 12005KT FEW023 BKN100